createdAt,value
2018-11-06T00:00:49.096Z,7.9
2018-11-06T00:01:50.669Z,7.9
2018-11-06T00:02:52.244Z,7.9
2018-11-06T00:03:53.792Z,7.9
2018-11-06T00:04:55.340Z,7.9
2018-11-06T00:05:56.881Z,7.9
2018-11-06T00:06:58.419Z,7.9
2018-11-06T00:07:59.785Z,7.9
2018-11-06T00:09:01.374Z,7.9
2018-11-06T00:10:02.238Z,7.9
2018-11-06T00:11:03.612Z,7.9
2018-11-06T00:12:05.004Z,7.9
2018-11-06T00:13:06.549Z,7.9
2018-11-06T00:14:07.942Z,7.9
2018-11-06T00:15:09.322Z,7.9
2018-11-06T00:16:10.530Z,7.9
2018-11-06T00:17:11.928Z,7.9
2018-11-06T00:18:13.162Z,7.9
2018-11-06T00:19:14.551Z,7.9
2018-11-06T00:20:15.769Z,7.9
2018-11-06T00:21:16.843Z,7.9
2018-11-06T00:22:18.388Z,7.9
2018-11-06T00:23:19.607Z,7.9
2018-11-06T00:24:20.987Z,7.9
2018-11-06T00:25:22.395Z,7.4
2018-11-06T00:26:23.780Z,7.5
2018-11-06T00:27:25.142Z,7.6
2018-11-06T00:28:26.217Z,7.7
2018-11-06T00:29:27.430Z,7.8
2018-11-06T00:30:28.808Z,7.9
2018-11-06T00:31:30.190Z,7.9
2018-11-06T00:32:31.567Z,7.9
2018-11-06T00:33:33.110Z,7.9
2018-11-06T00:34:34.656Z,7.9
2018-11-06T00:35:36.186Z,7.9
2018-11-06T00:36:37.724Z,7.9
2018-11-06T00:37:39.106Z,7.9
2018-11-06T00:38:40.669Z,7.9
2018-11-06T00:39:42.210Z,7.8
2018-11-06T00:40:43.725Z,7.9
2018-11-06T00:41:44.951Z,7.9
2018-11-06T00:42:46.021Z,7.9
2018-11-06T00:43:47.380Z,7.9
2018-11-06T00:44:48.776Z,7.9
2018-11-06T00:45:50.149Z,7.9
2018-11-06T00:46:51.525Z,7.9
2018-11-06T00:47:52.936Z,7.9
2018-11-06T00:48:54.311Z,7.9
2018-11-06T00:49:55.684Z,7.9
2018-11-06T00:50:57.636Z,7.9
2018-11-06T00:51:59.021Z,7.9
2018-11-06T00:53:00.559Z,7.9
2018-11-06T00:54:01.775Z,7.9
2018-11-06T00:55:02.833Z,7.9
2018-11-06T00:56:03.715Z,7.8
2018-11-06T00:57:05.097Z,7.8
2018-11-06T00:58:06.521Z,7.8
2018-11-06T00:59:07.898Z,7.8
2018-11-06T01:00:09.702Z,7.8
2018-11-06T01:01:11.240Z,7.8
2018-11-06T01:02:12.802Z,7.8
2018-11-06T01:03:14.200Z,7.8
2018-11-06T01:04:15.739Z,7.8
2018-11-06T01:05:17.308Z,7.8
2018-11-06T01:06:18.869Z,7.8
2018-11-06T01:07:20.079Z,7.8
2018-11-06T01:08:21.485Z,7.9
2018-11-06T01:09:22.866Z,7.8
2018-11-06T01:10:24.243Z,7.9
2018-11-06T01:11:25.622Z,7.9
2018-11-06T01:12:27.041Z,7.9
2018-11-06T01:13:28.421Z,7.9
2018-11-06T01:14:29.629Z,7.9
2018-11-06T01:15:31.184Z,7.9
2018-11-06T01:16:32.418Z,7.9
2018-11-06T01:17:33.632Z,7.9
2018-11-06T01:18:35.173Z,7.8
2018-11-06T01:19:36.405Z,7.8
2018-11-06T01:20:37.952Z,7.8
2018-11-06T01:21:39.000Z,7.8
2018-11-06T01:22:40.545Z,7.8
2018-11-06T01:23:41.921Z,7.8
2018-11-06T01:24:43.146Z,7.8
2018-11-06T01:25:44.520Z,7.8
2018-11-06T01:26:45.729Z,7.8
2018-11-06T01:27:46.950Z,7.7
2018-11-06T01:28:48.317Z,7.7
2018-11-06T01:29:49.538Z,7.7
2018-11-06T01:30:50.918Z,7.7
2018-11-06T01:31:52.468Z,7.7
2018-11-06T01:32:54.004Z,7.7
2018-11-06T01:33:55.379Z,7.7
2018-11-06T01:34:56.940Z,7.7
2018-11-06T01:35:58.333Z,7.7
2018-11-06T01:36:59.880Z,7.8
2018-11-06T01:38:00.778Z,7.8
2018-11-06T01:39:02.345Z,7.8
2018-11-06T01:40:03.743Z,7.8
2018-11-06T01:41:04.958Z,7.9
2018-11-06T01:42:05.993Z,7.8
2018-11-06T01:43:07.544Z,7.9
2018-11-06T01:44:08.924Z,7.9
2018-11-06T01:45:10.329Z,7.9
2018-11-06T01:46:11.711Z,7.9
2018-11-06T01:47:13.080Z,7.9
2018-11-06T01:48:14.439Z,7.9
2018-11-06T01:49:15.961Z,7.9
2018-11-06T01:50:17.197Z,7.8
2018-11-06T01:51:18.065Z,7.8
2018-11-06T01:52:19.450Z,7.8
2018-11-06T01:53:20.820Z,7.8
2018-11-06T01:54:22.188Z,7.8
2018-11-06T01:55:23.579Z,7.8
2018-11-06T01:56:25.130Z,7.8
2018-11-06T01:57:26.666Z,7.7
2018-11-06T01:58:28.219Z,7.7
2018-11-06T01:59:29.481Z,7.7
2018-11-06T02:00:30.688Z,7.7
2018-11-06T02:01:32.076Z,7.7
2018-11-06T02:02:33.463Z,7.7
2018-11-06T02:03:34.832Z,7.8
2018-11-06T02:04:36.370Z,7.8
2018-11-06T02:05:37.582Z,7.8
2018-11-06T02:06:38.952Z,7.8
2018-11-06T02:07:40.320Z,7.8
2018-11-06T02:08:41.519Z,7.8
2018-11-06T02:09:42.897Z,7.8
2018-11-06T02:10:44.441Z,7.7
2018-11-06T02:11:45.996Z,7.6
2018-11-06T02:12:47.220Z,7.6
2018-11-06T02:13:48.104Z,7.5
2018-11-06T02:14:49.496Z,7.4
2018-11-06T02:15:51.023Z,7.3
2018-11-06T02:16:52.060Z,7.2
2018-11-06T02:17:53.442Z,7.2
2018-11-06T02:18:54.665Z,7.2
2018-11-06T02:19:56.100Z,7.2
2018-11-06T02:20:57.138Z,7.2
2018-11-06T02:21:58.684Z,7.1
2018-11-06T02:23:00.227Z,7.1
2018-11-06T02:24:01.773Z,7.1
2018-11-06T02:25:03.152Z,7.1
2018-11-06T02:26:04.538Z,7.1
2018-11-06T02:27:06.095Z,7.1
2018-11-06T02:28:07.470Z,7.1
2018-11-06T02:29:08.852Z,7.1
2018-11-06T02:30:10.418Z,7.1
2018-11-06T02:31:11.980Z,7.1
2018-11-06T02:32:13.863Z,7.1
2018-11-06T02:33:15.017Z,7.1
2018-11-06T02:34:16.418Z,7.1
2018-11-06T02:35:18.050Z,7.1
2018-11-06T02:36:19.592Z,7.1
2018-11-06T02:37:21.138Z,7.1
2018-11-06T02:38:22.694Z,7.1
2018-11-06T02:39:24.095Z,7.1
2018-11-06T02:40:25.323Z,7.1
2018-11-06T02:41:26.730Z,7.1
2018-11-06T02:42:28.301Z,7.1
2018-11-06T02:43:29.696Z,7.1
2018-11-06T02:44:30.961Z,7.1
2018-11-06T02:45:32.194Z,7.1
2018-11-06T02:46:33.588Z,7.1
2018-11-06T02:47:35.005Z,7.1
2018-11-06T02:48:36.404Z,7.1
2018-11-06T02:49:37.782Z,7.1
2018-11-06T02:50:39.317Z,7.1
2018-11-06T02:51:40.694Z,7.2
2018-11-06T02:52:42.334Z,7.2
2018-11-06T02:53:43.912Z,7.2
2018-11-06T02:54:44.972Z,7.2
2018-11-06T02:55:46.978Z,7.2
2018-11-06T02:56:48.524Z,7.2
2018-11-06T02:57:50.097Z,7.2
2018-11-06T02:58:51.489Z,7.2
2018-11-06T02:59:52.712Z,7.2
2018-11-06T03:00:54.260Z,7.2
2018-11-06T03:01:55.657Z,7.2
2018-11-06T03:02:56.881Z,7.2
2018-11-06T03:03:58.280Z,7.2
2018-11-06T03:04:59.827Z,7.3
2018-11-06T03:06:01.410Z,7.3
2018-11-06T03:07:02.802Z,7.3
2018-11-06T03:08:04.197Z,7.4
2018-11-06T03:09:05.570Z,7.4
2018-11-06T03:10:07.406Z,7.5
2018-11-06T03:11:08.791Z,7.6
2018-11-06T03:12:10.019Z,7.7
2018-11-06T03:13:11.391Z,7.7
2018-11-06T03:14:12.457Z,7.8
2018-11-06T03:15:13.700Z,7.9
2018-11-06T03:16:15.248Z,7.9
2018-11-06T03:17:16.695Z,7.9
2018-11-06T03:18:18.075Z,7.9
2018-11-06T03:19:19.627Z,7.9
2018-11-06T03:20:21.011Z,7.4
2018-11-06T03:21:22.230Z,7.6
2018-11-06T03:22:23.456Z,7.7
2018-11-06T03:23:24.669Z,7.8
2018-11-06T03:24:26.048Z,7.9
2018-11-06T03:25:27.600Z,7.9
2018-11-06T03:26:28.315Z,7.9
2018-11-06T03:27:29.854Z,7.9
2018-11-06T03:28:31.440Z,7.9
2018-11-06T03:29:32.826Z,7.9
2018-11-06T03:30:34.227Z,7.9
2018-11-06T03:31:35.463Z,7.9
2018-11-06T03:32:37.069Z,7.9
2018-11-06T03:33:38.628Z,7.9
2018-11-06T03:34:40.188Z,7.9
2018-11-06T03:35:41.732Z,7.9
2018-11-06T03:36:43.111Z,7.9
2018-11-06T03:37:44.691Z,7.9
2018-11-06T03:38:46.094Z,7.9
2018-11-06T03:39:47.469Z,7.9
2018-11-06T03:40:49.025Z,7.9
2018-11-06T03:41:50.571Z,7.9
2018-11-06T03:42:52.120Z,7.9
2018-11-06T03:43:53.661Z,7.9
2018-11-06T03:44:55.049Z,7.9
2018-11-06T03:45:56.599Z,7.9
2018-11-06T03:46:58.003Z,7.9
2018-11-06T03:47:59.375Z,7.9
2018-11-06T03:49:00.915Z,7.9
2018-11-06T03:50:02.353Z,7.8
2018-11-06T03:51:03.739Z,7.8
2018-11-06T03:52:05.306Z,7.8
2018-11-06T03:53:06.843Z,7.8
2018-11-06T03:54:08.062Z,7.8
2018-11-06T03:55:09.618Z,7.8
2018-11-06T03:56:11.038Z,7.8
2018-11-06T03:57:12.585Z,7.8
2018-11-06T03:58:14.155Z,7.8
2018-11-06T03:59:15.817Z,7.7
2018-11-06T04:00:17.049Z,7.7
2018-11-06T04:01:18.596Z,7.7
2018-11-06T04:02:19.962Z,7.7
2018-11-06T04:03:21.501Z,7.7
2018-11-06T04:04:22.885Z,7.7
2018-11-06T04:05:24.295Z,7.8
2018-11-06T04:06:25.666Z,7.8
2018-11-06T04:07:27.063Z,7.9
2018-11-06T04:08:28.648Z,7.9
2018-11-06T04:09:29.886Z,7.9
2018-11-06T04:10:31.263Z,7.9
2018-11-06T04:11:32.816Z,7.8
2018-11-06T04:12:34.184Z,7.8
2018-11-06T04:13:35.398Z,7.7
2018-11-06T04:14:36.600Z,7.6
2018-11-06T04:15:37.985Z,7.4
2018-11-06T04:16:39.381Z,7.3
2018-11-06T04:17:40.777Z,7.2
2018-11-06T04:18:41.838Z,7.2
2018-11-06T04:19:43.049Z,7.2
2018-11-06T04:20:44.632Z,7.1
2018-11-06T04:21:46.172Z,7.2
2018-11-06T04:22:47.249Z,7.2
2018-11-06T04:23:48.292Z,7.2
2018-11-06T04:24:49.656Z,7.2
2018-11-06T04:25:51.213Z,7.2
2018-11-06T04:26:52.269Z,7.1
2018-11-06T04:27:53.324Z,7.1
2018-11-06T04:28:54.579Z,7.2
2018-11-06T04:29:55.952Z,7.2
2018-11-06T04:30:57.346Z,7.2
2018-11-06T04:31:58.566Z,7.2
2018-11-06T04:33:00.013Z,7.2
2018-11-06T04:34:01.256Z,7.2
2018-11-06T04:35:02.469Z,7.2
2018-11-06T04:36:03.882Z,7.2
2018-11-06T04:37:05.682Z,7.2
2018-11-06T04:38:06.943Z,7.2
2018-11-06T04:39:08.504Z,7.2
2018-11-06T04:40:09.930Z,7.2
2018-11-06T04:41:11.326Z,7.2
2018-11-06T04:42:12.761Z,7.2
2018-11-06T04:43:14.309Z,7.2
2018-11-06T04:44:15.579Z,7.2
2018-11-06T04:45:16.803Z,7.3
2018-11-06T04:46:18.277Z,7.3
2018-11-06T04:47:19.834Z,7.3
2018-11-06T04:48:21.389Z,7.3
2018-11-06T04:49:23.069Z,7.4
2018-11-06T04:50:25.269Z,7.4
2018-11-06T04:51:26.675Z,7.5
2018-11-06T04:52:28.232Z,7.5
2018-11-06T04:53:29.477Z,7.6
2018-11-06T04:54:30.869Z,7.7
2018-11-06T04:55:32.433Z,7.8
2018-11-06T04:56:33.870Z,7.9
2018-11-06T04:57:35.413Z,7.3
2018-11-06T04:58:36.819Z,7.4
2018-11-06T04:59:38.384Z,7.6
2018-11-06T05:00:39.604Z,7.7
2018-11-06T05:01:41.010Z,7.8
2018-11-06T05:02:42.268Z,7.9
2018-11-06T05:03:43.717Z,7.9
2018-11-06T05:04:45.323Z,7.9
2018-11-06T05:05:46.905Z,7.9
2018-11-06T05:06:48.750Z,7.9
2018-11-06T05:07:50.370Z,7.9
2018-11-06T05:08:51.905Z,7.9
2018-11-06T05:09:53.496Z,7.9
2018-11-06T05:10:54.881Z,7.9
2018-11-06T05:11:56.249Z,7.9
2018-11-06T05:12:57.613Z,7.9
2018-11-06T05:13:59.181Z,7.9
2018-11-06T05:15:00.405Z,7.9
2018-11-06T05:16:01.838Z,7.9
2018-11-06T05:17:03.039Z,7.9
2018-11-06T05:18:04.413Z,7.9
2018-11-06T05:19:05.290Z,7.9
2018-11-06T05:20:06.504Z,7.9
2018-11-06T05:21:07.870Z,7.9
2018-11-06T05:22:09.263Z,7.9
2018-11-06T05:23:10.464Z,7.9
2018-11-06T05:24:11.682Z,7.8
2018-11-06T05:25:13.185Z,7.8
2018-11-06T05:26:14.514Z,7.8
2018-11-06T05:27:15.689Z,7.8
2018-11-06T05:28:16.922Z,7.8
2018-11-06T05:29:18.130Z,7.8
2018-11-06T05:30:19.186Z,7.8
2018-11-06T05:31:20.595Z,7.8
2018-11-06T05:32:22.140Z,7.7
2018-11-06T05:33:23.347Z,7.7
2018-11-06T05:34:24.732Z,7.7
2018-11-06T05:35:26.440Z,7.7
2018-11-06T05:36:27.689Z,7.7
2018-11-06T05:37:29.067Z,7.7
2018-11-06T05:38:30.446Z,7.7
2018-11-06T05:39:31.944Z,7.7
2018-11-06T05:40:33.629Z,7.7
2018-11-06T05:41:35.172Z,7.7
2018-11-06T05:42:36.729Z,7.7
2018-11-06T05:43:38.329Z,7.6
2018-11-06T05:44:39.526Z,7.6
2018-11-06T05:45:41.645Z,7.6
2018-11-06T05:46:42.933Z,7.6
2018-11-06T05:47:44.360Z,7.6
2018-11-06T05:48:45.765Z,7.6
2018-11-06T05:49:47.303Z,7.6
2018-11-06T05:50:48.723Z,7.6
2018-11-06T05:51:50.111Z,7.6
2018-11-06T05:52:51.178Z,7.6
2018-11-06T05:53:52.602Z,7.6
2018-11-06T05:54:53.994Z,7.6
2018-11-06T05:55:55.369Z,7.7
2018-11-06T05:56:56.915Z,7.7
2018-11-06T05:57:58.520Z,7.7
2018-11-06T05:58:59.904Z,7.7
2018-11-06T06:00:00.970Z,7.6
2018-11-06T06:01:02.183Z,7.5
2018-11-06T06:02:03.396Z,7.4
2018-11-06T06:03:04.941Z,7.3
2018-11-06T06:04:06.161Z,7.2
2018-11-06T06:05:07.377Z,7.2
2018-11-06T06:06:08.775Z,7.2
2018-11-06T06:07:10.164Z,7.1
2018-11-06T06:08:11.262Z,7.2
2018-11-06T06:09:12.483Z,7.1
2018-11-06T06:10:14.028Z,7.2
2018-11-06T06:11:15.624Z,7.2
2018-11-06T06:12:16.878Z,7.1
2018-11-06T06:13:17.940Z,7.1
2018-11-06T06:14:19.333Z,7.1
2018-11-06T06:15:20.718Z,7.1
2018-11-06T06:16:22.113Z,7.1
2018-11-06T06:17:24.480Z,7.1
2018-11-06T06:18:25.939Z,7.2
2018-11-06T06:19:27.173Z,7.2
2018-11-06T06:20:28.578Z,7.2
2018-11-06T06:21:30.119Z,7.2
2018-11-06T06:22:32.039Z,7.2
2018-11-06T06:23:33.486Z,7.2
2018-11-06T06:24:35.052Z,7.2
2018-11-06T06:25:36.661Z,7.2
2018-11-06T06:26:37.733Z,7.2
2018-11-06T06:27:39.118Z,7.3
2018-11-06T06:28:40.597Z,7.3
2018-11-06T06:29:41.820Z,7.3
2018-11-06T06:30:43.230Z,7.4
2018-11-06T06:31:44.788Z,7.5
2018-11-06T06:32:46.011Z,7.6
2018-11-06T06:33:47.419Z,7.7
2018-11-06T06:34:49.398Z,7.8
2018-11-06T06:35:51.136Z,7.8
2018-11-06T06:36:52.708Z,7.8
2018-11-06T06:37:54.090Z,7.9
2018-11-06T06:38:55.513Z,7.9
2018-11-06T06:39:57.403Z,7.9
2018-11-06T06:40:59.547Z,7.9
2018-11-06T06:42:01.193Z,7.9
2018-11-06T06:43:02.275Z,7.9
2018-11-06T06:44:03.655Z,7.9
2018-11-06T06:45:05.040Z,7.9
2018-11-06T06:46:06.898Z,7.9
2018-11-06T06:47:08.136Z,7.9
2018-11-06T06:48:09.525Z,7.9
2018-11-06T06:49:10.756Z,7.9
2018-11-06T06:50:11.799Z,7.9
2018-11-06T06:51:13.010Z,7.9
2018-11-06T06:52:14.400Z,7.9
2018-11-06T06:53:15.976Z,7.9
2018-11-06T06:54:19.184Z,7.9
2018-11-06T06:55:20.914Z,7.9
2018-11-06T06:56:22.133Z,7.8
2018-11-06T06:57:23.529Z,7.8
2018-11-06T06:58:25.086Z,7.8
2018-11-06T06:59:26.318Z,7.8
2018-11-06T07:00:27.720Z,7.8
2018-11-06T07:01:29.112Z,7.8
2018-11-06T07:02:30.349Z,7.8
2018-11-06T07:03:31.369Z,7.9
2018-11-06T07:04:32.921Z,7.9
2018-11-06T07:05:34.128Z,7.9
2018-11-06T07:06:35.499Z,7.9
2018-11-06T07:07:37.078Z,7.9
2018-11-06T07:08:38.141Z,7.9
2018-11-06T07:09:39.698Z,7.9
2018-11-06T07:10:41.090Z,7.9
2018-11-06T07:11:42.469Z,7.9
2018-11-06T07:12:44.526Z,7.9
2018-11-06T07:13:45.972Z,7.9
2018-11-06T07:14:47.517Z,7.9
2018-11-06T07:15:49.047Z,7.9
2018-11-06T07:16:50.259Z,7.9
2018-11-06T07:17:51.821Z,7.9
2018-11-06T07:18:53.054Z,7.9
2018-11-06T07:19:54.607Z,7.9
2018-11-06T07:20:56.154Z,7.9
2018-11-06T07:21:57.536Z,7.9
2018-11-06T07:22:58.919Z,7.9
2018-11-06T07:24:00.452Z,7.9
2018-11-06T07:25:01.831Z,7.9
2018-11-06T07:26:03.214Z,7.9
2018-11-06T07:27:04.783Z,7.9
2018-11-06T07:28:06.344Z,7.8
2018-11-06T07:29:07.572Z,7.8
2018-11-06T07:30:09.128Z,7.8
2018-11-06T07:31:10.520Z,7.8
2018-11-06T07:32:11.720Z,7.8
2018-11-06T07:33:13.122Z,7.8
2018-11-06T07:34:14.706Z,7.8
2018-11-06T07:35:17.418Z,7.7
2018-11-06T07:36:19.021Z,7.6
2018-11-06T07:37:20.419Z,7.5
2018-11-06T07:38:21.629Z,7.4
2018-11-06T07:39:23.019Z,7.2
2018-11-06T07:40:24.702Z,7.2
2018-11-06T07:41:26.278Z,7.1
2018-11-06T07:42:27.812Z,7.1
2018-11-06T07:43:28.876Z,7.2
2018-11-06T07:44:30.460Z,7.1
2018-11-06T07:45:32.004Z,7.1
2018-11-06T07:46:33.540Z,7.1
2018-11-06T07:47:34.926Z,7.2
2018-11-06T07:48:36.676Z,7.2
2018-11-06T07:49:38.119Z,7.1
2018-11-06T07:50:39.701Z,7.1
2018-11-06T07:51:41.070Z,7.2
2018-11-06T07:52:42.129Z,7.1
2018-11-06T07:53:43.690Z,7.2
2018-11-06T07:54:45.076Z,7.2
2018-11-06T07:55:47.249Z,7.2
2018-11-06T07:56:48.697Z,7.2
2018-11-06T07:57:49.932Z,7.2
2018-11-06T07:58:50.985Z,7.2
2018-11-06T07:59:52.542Z,7.2
2018-11-06T08:00:53.745Z,7.2
2018-11-06T08:01:54.960Z,7.2
2018-11-06T08:02:56.360Z,7.2
2018-11-06T08:03:58.027Z,7.2
2018-11-06T08:04:59.245Z,7.2
2018-11-06T08:06:00.807Z,7.2
2018-11-06T08:07:02.377Z,7.2
2018-11-06T08:08:03.569Z,7.3
2018-11-06T08:09:04.789Z,7.3
2018-11-06T08:10:06.180Z,7.3
2018-11-06T08:11:07.753Z,7.4
2018-11-06T08:12:09.328Z,7.5
2018-11-06T08:13:10.749Z,7.5
2018-11-06T08:14:11.972Z,7.6
2018-11-06T08:15:14.611Z,7.7
2018-11-06T08:16:16.078Z,7.8
2018-11-06T08:17:17.485Z,7.9
2018-11-06T08:18:18.711Z,7.9
2018-11-06T08:19:20.256Z,7.9
2018-11-06T08:20:21.792Z,7.9
2018-11-06T08:21:23.352Z,7.6
2018-11-06T08:22:24.949Z,7.7
2018-11-06T08:23:26.377Z,7.9
2018-11-06T08:24:27.986Z,7.9
2018-11-06T08:25:29.371Z,7.7
2018-11-06T08:26:30.600Z,7.8
2018-11-06T08:27:32.301Z,7.9
2018-11-06T08:28:33.849Z,7.9
2018-11-06T08:29:35.053Z,7.9
2018-11-06T08:30:37.289Z,7.9
2018-11-06T08:31:41.739Z,7.9
2018-11-06T08:32:46.712Z,7.9
2018-11-06T08:33:48.245Z,7.9
2018-11-06T08:34:49.829Z,7.9
2018-11-06T08:35:51.198Z,7.9
2018-11-06T08:36:52.852Z,7.9
2018-11-06T08:38:08.936Z,7.9
2018-11-06T08:39:10.492Z,7.9
2018-11-06T08:40:11.708Z,7.9
2018-11-06T08:41:13.255Z,7.9
2018-11-06T08:42:14.852Z,7.9
2018-11-06T08:43:16.403Z,7.9
2018-11-06T08:44:17.944Z,7.9
2018-11-06T08:45:19.231Z,7.9
2018-11-06T08:46:20.638Z,7.8
2018-11-06T08:47:22.189Z,7.8
2018-11-06T08:48:23.582Z,7.8
2018-11-06T08:49:24.801Z,7.7
2018-11-06T08:50:26.205Z,7.7
2018-11-06T08:51:27.740Z,7.7
2018-11-06T08:52:28.978Z,7.7
2018-11-06T08:53:29.873Z,7.6
2018-11-06T08:54:31.713Z,7.6
2018-11-06T08:55:33.391Z,7.6
2018-11-06T08:56:34.950Z,7.6
2018-11-06T08:57:36.170Z,7.6
2018-11-06T08:58:37.736Z,7.7
2018-11-06T08:59:39.287Z,7.7
2018-11-06T09:00:40.356Z,7.7
2018-11-06T09:01:41.919Z,7.8
2018-11-06T09:02:44.273Z,7.8
2018-11-06T09:03:45.988Z,7.8
2018-11-06T09:04:47.233Z,7.9
2018-11-06T09:05:48.452Z,7.9
2018-11-06T09:06:50.005Z,7.9
2018-11-06T09:07:50.903Z,7.9
2018-11-06T09:08:52.893Z,7.9
2018-11-06T09:09:54.320Z,7.9
2018-11-06T09:10:55.705Z,7.9
2018-11-06T09:11:57.275Z,7.8
2018-11-06T09:12:58.819Z,7.8
2018-11-06T09:14:00.204Z,7.7
2018-11-06T09:15:01.773Z,7.6
2018-11-06T09:16:03.322Z,7.5
2018-11-06T09:17:05.118Z,7.3
2018-11-06T09:18:06.410Z,7.2
2018-11-06T09:19:07.961Z,7.1
2018-11-06T09:20:09.518Z,7.1
2018-11-06T09:21:10.889Z,7.2
2018-11-06T09:22:12.335Z,7.2
2018-11-06T09:23:13.908Z,7.1
2018-11-06T09:24:14.974Z,7.1
2018-11-06T09:25:16.204Z,7.2
2018-11-06T09:26:17.438Z,7.1
2018-11-06T09:27:18.822Z,7.2
2018-11-06T09:28:20.201Z,7.1
2018-11-06T09:29:21.294Z,7.1
2018-11-06T09:30:22.527Z,7.2
2018-11-06T09:31:24.098Z,7.2
2018-11-06T09:32:25.640Z,7.2
2018-11-06T09:33:27.190Z,7.2
2018-11-06T09:34:28.592Z,7.2
2018-11-06T09:35:29.979Z,7.2
2018-11-06T09:36:31.362Z,7.2
2018-11-06T09:37:32.923Z,7.2
2018-11-06T09:38:34.483Z,7.2
2018-11-06T09:39:35.701Z,7.2
2018-11-06T09:40:37.099Z,7.2
2018-11-06T09:41:38.327Z,7.2
2018-11-06T09:42:39.383Z,7.2
2018-11-06T09:43:40.756Z,7.2
2018-11-06T09:44:41.813Z,7.2
2018-11-06T09:45:43.029Z,7.2
2018-11-06T09:46:44.476Z,7.2
2018-11-06T09:47:45.863Z,7.2
2018-11-06T09:48:47.375Z,7.2
2018-11-06T09:49:48.943Z,7.2
2018-11-06T09:50:50.333Z,7.2
2018-11-06T09:51:51.709Z,7.2
2018-11-06T09:52:53.158Z,7.2
2018-11-06T09:53:54.548Z,7.2
2018-11-06T09:54:55.934Z,7.2
2018-11-06T09:55:57.161Z,7.2
2018-11-06T09:56:58.384Z,7.2
2018-11-06T09:57:59.462Z,7.2
2018-11-06T09:59:01.013Z,7.2
2018-11-06T10:00:02.890Z,7.2
2018-11-06T10:01:04.301Z,7.3
2018-11-06T10:02:05.722Z,7.3
2018-11-06T10:03:07.296Z,7.3
2018-11-06T10:04:08.538Z,7.3
2018-11-06T10:05:09.755Z,7.4
2018-11-06T10:06:11.753Z,7.4
2018-11-06T10:07:15.578Z,7.4
2018-11-06T10:08:17.249Z,7.4
2018-11-06T10:09:19.088Z,7.5
2018-11-06T10:10:20.528Z,7.5
2018-11-06T10:11:21.967Z,7.6
2018-11-06T10:12:23.501Z,7.6
2018-11-06T10:13:24.550Z,7.7
2018-11-06T10:14:25.754Z,7.8
2018-11-06T10:15:27.270Z,7.8
2018-11-06T10:16:28.819Z,7.9
2018-11-06T10:17:30.026Z,7.9
2018-11-06T10:18:31.421Z,7.9
2018-11-06T10:19:32.816Z,7.9
2018-11-06T10:20:34.202Z,7.9
2018-11-06T10:21:35.591Z,7.9
2018-11-06T10:22:37.158Z,7.9
2018-11-06T10:23:38.549Z,7.9
2018-11-06T10:24:39.945Z,7.9
2018-11-06T10:25:41.328Z,7.9
2018-11-06T10:26:42.910Z,7.9
2018-11-06T10:27:44.373Z,7.9
2018-11-06T10:28:45.924Z,7.9
2018-11-06T10:29:47.321Z,7.9
2018-11-06T10:30:48.977Z,7.9
2018-11-06T10:31:50.435Z,7.9
2018-11-06T10:32:51.883Z,7.9
2018-11-06T10:33:53.290Z,7.3
2018-11-06T10:34:54.700Z,7.4
2018-11-06T10:35:56.255Z,7.6
2018-11-06T10:36:57.675Z,7.7
2018-11-06T10:37:59.123Z,7.9
2018-11-06T10:39:00.295Z,7.9
2018-11-06T10:40:01.839Z,7.4
2018-11-06T10:41:02.751Z,7.5
2018-11-06T10:42:04.136Z,7.7
2018-11-06T10:43:05.694Z,7.8
2018-11-06T10:44:07.120Z,7.9
2018-11-06T10:45:08.348Z,7.8
2018-11-06T10:46:09.568Z,7.9
2018-11-06T10:47:10.819Z,7.9
2018-11-06T10:48:12.390Z,7.9
2018-11-06T10:49:13.959Z,7.9
2018-11-06T10:50:15.187Z,7.9
2018-11-06T10:51:16.394Z,7.9
2018-11-06T10:52:17.790Z,7.2
2018-11-06T10:53:19.185Z,7.3
2018-11-06T10:54:20.426Z,7.3
2018-11-06T10:55:21.698Z,7.2
2018-11-06T10:56:23.231Z,7.2
2018-11-06T10:57:24.643Z,7.2
2018-11-06T10:58:26.193Z,7.2
2018-11-06T10:59:27.748Z,7.2
2018-11-06T11:00:29.119Z,7.2
2018-11-06T11:01:30.521Z,7.2
2018-11-06T11:02:31.765Z,7.2
2018-11-06T11:03:32.834Z,7.2
2018-11-06T11:04:34.093Z,7.2
2018-11-06T11:05:35.472Z,7.1
2018-11-06T11:06:36.542Z,7.2
2018-11-06T11:07:37.931Z,7.2
2018-11-06T11:08:39.488Z,7.1
2018-11-06T11:09:40.858Z,7.2
2018-11-06T11:10:42.075Z,7.2
2018-11-06T11:11:43.624Z,7.1
2018-11-06T11:12:44.856Z,7.2
2018-11-06T11:13:46.072Z,7.2
2018-11-06T11:14:47.630Z,7.2
2018-11-06T11:15:49.056Z,7.2
2018-11-06T11:16:50.283Z,7.2
2018-11-06T11:17:51.679Z,7.2
2018-11-06T11:18:53.222Z,7.2
2018-11-06T11:19:54.780Z,7.2
2018-11-06T11:20:55.856Z,7.2
2018-11-06T11:21:57.073Z,7.2
2018-11-06T11:22:58.467Z,7.2
2018-11-06T11:23:59.721Z,7.2
2018-11-06T11:25:01.299Z,7.2
2018-11-06T11:26:02.197Z,7.2
2018-11-06T11:27:03.596Z,7.2
2018-11-06T11:28:05.004Z,7.2
2018-11-06T11:29:06.621Z,7.2
2018-11-06T11:30:07.997Z,7.2
2018-11-06T11:31:09.575Z,7.2
2018-11-06T11:32:10.961Z,7.2
2018-11-06T11:33:12.180Z,7.2
2018-11-06T11:34:13.745Z,7.2
2018-11-06T11:35:15.135Z,7.2
2018-11-06T11:36:16.553Z,7.2
2018-11-06T11:37:18.115Z,7.2
2018-11-06T11:38:19.511Z,7.2
2018-11-06T11:39:20.894Z,7.3
2018-11-06T11:40:22.305Z,7.3
2018-11-06T11:41:23.845Z,7.3
2018-11-06T11:42:24.897Z,7.3
2018-11-06T11:43:26.115Z,7.3
2018-11-06T11:44:27.156Z,7.4
2018-11-06T11:45:28.529Z,7.4
2018-11-06T11:46:29.755Z,7.5
2018-11-06T11:47:31.137Z,7.5
2018-11-06T11:48:32.367Z,7.6
2018-11-06T11:49:33.588Z,7.6
2018-11-06T11:50:34.970Z,7.7
2018-11-06T11:51:36.526Z,7.8
2018-11-06T11:52:37.932Z,7.8
2018-11-06T11:53:39.311Z,7.9
2018-11-06T11:54:40.698Z,7.9
2018-11-06T11:55:41.811Z,7.9
2018-11-06T11:56:43.046Z,7.9
2018-11-06T11:57:44.305Z,7.9
2018-11-06T11:58:45.854Z,7.9
2018-11-06T11:59:47.357Z,7.9
2018-11-06T12:00:48.739Z,7.9
2018-11-06T12:01:49.957Z,7.9
2018-11-06T12:02:51.512Z,7.9
2018-11-06T12:03:52.757Z,7.9
2018-11-06T12:04:54.148Z,7.9
2018-11-06T12:05:55.528Z,7.9
2018-11-06T12:06:57.066Z,7.9
2018-11-06T12:07:58.638Z,7.9
2018-11-06T12:09:00.179Z,7.9
2018-11-06T12:10:01.413Z,7.9
2018-11-06T12:11:02.642Z,7.9
2018-11-06T12:12:04.007Z,7.9
2018-11-06T12:13:05.254Z,7.9
2018-11-06T12:14:06.642Z,7.9
2018-11-06T12:15:08.044Z,7.9
2018-11-06T12:16:09.152Z,7.9
2018-11-06T12:17:10.365Z,7.6
2018-11-06T12:18:11.711Z,7.7
2018-11-06T12:19:13.161Z,7.9
2018-11-06T12:20:14.542Z,7.9
2018-11-06T12:21:15.950Z,7.9
2018-11-06T12:22:17.481Z,7.9
2018-11-06T12:23:18.701Z,7.9
2018-11-06T12:24:20.156Z,7.9
2018-11-06T12:25:24.025Z,7.9
2018-11-06T12:26:25.672Z,7.9
2018-11-06T12:27:27.232Z,7.9
2018-11-06T12:28:28.786Z,7.9
2018-11-06T12:29:29.961Z,7.9
2018-11-06T12:30:31.501Z,7.9
2018-11-06T12:31:32.885Z,7.9
2018-11-06T12:32:34.854Z,7.9
2018-11-06T12:33:35.944Z,7.9
2018-11-06T12:34:37.529Z,7.9
2018-11-06T12:35:38.640Z,7.9
2018-11-06T12:36:41.255Z,7.9
2018-11-06T12:37:42.891Z,7.3
2018-11-06T12:38:44.290Z,7.4
2018-11-06T12:39:45.861Z,7.5
2018-11-06T12:40:47.077Z,7.6
2018-11-06T12:41:48.461Z,7.6
2018-11-06T12:42:50.141Z,7.5
2018-11-06T12:43:51.543Z,7.5
2018-11-06T12:44:52.606Z,7.4
2018-11-06T12:45:54.004Z,7.3
2018-11-06T12:46:55.558Z,7.2
2018-11-06T12:47:56.783Z,7.2
2018-11-06T12:48:58.348Z,7.2
2018-11-06T12:49:59.559Z,7.1
2018-11-06T12:51:01.123Z,7.2
2018-11-06T12:52:02.679Z,7.2
2018-11-06T12:53:04.049Z,7.1
2018-11-06T12:54:05.276Z,7.2
2018-11-06T12:55:06.172Z,7.2
2018-11-06T12:56:07.567Z,7.1
2018-11-06T12:57:08.792Z,7.1
2018-11-06T12:58:10.234Z,7.2
2018-11-06T12:59:11.601Z,7.2
2018-11-06T13:00:12.988Z,7.1
2018-11-06T13:01:14.354Z,7.2
2018-11-06T13:02:15.729Z,7.1
2018-11-06T13:03:17.636Z,7.1
2018-11-06T13:04:19.115Z,7.2
2018-11-06T13:05:20.325Z,7.2
2018-11-06T13:06:21.701Z,7.2
2018-11-06T13:07:23.259Z,7.2
2018-11-06T13:08:24.822Z,7.2
2018-11-06T13:09:26.226Z,7.2
2018-11-06T13:10:27.447Z,7.2
2018-11-06T13:11:28.648Z,7.2
2018-11-06T13:12:30.182Z,7.2
2018-11-06T13:13:31.563Z,7.2
2018-11-06T13:14:32.944Z,7.2
2018-11-06T13:15:35.260Z,7.2
2018-11-06T13:16:36.908Z,7.2
2018-11-06T13:17:38.297Z,7.2
2018-11-06T13:18:39.522Z,7.2
2018-11-06T13:19:40.899Z,7.2
2018-11-06T13:20:42.451Z,7.2
2018-11-06T13:21:44.002Z,7.2
2018-11-06T13:22:45.066Z,7.2
2018-11-06T13:23:46.652Z,7.2
2018-11-06T13:24:47.870Z,7.2
2018-11-06T13:25:49.507Z,7.2
2018-11-06T13:26:50.549Z,7.2
2018-11-06T13:27:52.115Z,7.2
2018-11-06T13:28:53.341Z,7.2
2018-11-06T13:29:54.565Z,7.3
2018-11-06T13:30:56.140Z,7.3
2018-11-06T13:31:57.704Z,7.3
2018-11-06T13:32:59.100Z,7.3
2018-11-06T13:34:00.326Z,7.4
2018-11-06T13:35:01.887Z,7.4
2018-11-06T13:36:03.135Z,7.4
2018-11-06T13:37:04.687Z,7.5
2018-11-06T13:38:06.260Z,7.5
2018-11-06T13:39:07.830Z,7.6
2018-11-06T13:40:09.229Z,7.6
2018-11-06T13:41:10.831Z,7.7
2018-11-06T13:42:12.519Z,7.7
2018-11-06T13:43:14.223Z,7.8
2018-11-06T13:44:18.410Z,7.8
2018-11-06T13:45:21.543Z,7.9
2018-11-06T13:46:22.931Z,7.9
2018-11-06T13:47:24.174Z,7.9
2018-11-06T13:48:25.730Z,7.9
2018-11-06T13:49:27.103Z,7.9
2018-11-06T13:50:28.659Z,7.9
2018-11-06T13:51:30.077Z,7.9
2018-11-06T13:52:31.640Z,7.9
2018-11-06T13:53:33.271Z,7.9
2018-11-06T13:54:34.657Z,7.9
2018-11-06T13:55:36.050Z,7.9
2018-11-06T13:56:37.600Z,7.9
2018-11-06T13:57:38.982Z,7.9
2018-11-06T13:58:40.027Z,7.9
2018-11-06T13:59:41.419Z,7.9
2018-11-06T14:00:42.656Z,7.9
2018-11-06T14:01:44.208Z,7.9
2018-11-06T14:02:45.984Z,7.9
2018-11-06T14:03:47.216Z,7.9
2018-11-06T14:04:48.617Z,7.9
2018-11-06T14:05:50.025Z,7.9
2018-11-06T14:06:51.080Z,7.9